sensor_id;sensor_type;location;lat;lon;timestamp;P1;durP1;ratioP1;P2;durP2;ratioP2
12719;SDS011;6424;48.520;11.228;2023-08-06T00:01:48;4.17;;;3.23;;
12719;SDS011;6424;48.520;11.228;2023-08-06T00:04:29;4.03;;;3.53;;
12719;SDS011;6424;48.520;11.228;2023-08-06T00:07:09;4.97;;;3.07;;
12719;SDS011;6424;48.520;11.228;2023-08-06T00:09:50;3.60;;;3.27;;
12719;SDS011;6424;48.520;11.228;2023-08-06T00:12:31;3.33;;;2.87;;
12719;SDS011;6424;48.520;11.228;2023-08-06T00:15:12;4.80;;;3.53;;
12719;SDS011;6424;48.520;11.228;2023-08-06T00:17:52;4.87;;;3.30;;
12719;SDS011;6424;48.520;11.228;2023-08-06T00:20:33;3.53;;;3.23;;
12719;SDS011;6424;48.520;11.228;2023-08-06T00:23:14;3.77;;;2.90;;
12719;SDS011;6424;48.520;11.228;2023-08-06T00:25:55;2.80;;;2.60;;
12719;SDS011;6424;48.520;11.228;2023-08-06T00:28:35;4.07;;;3.07;;
12719;SDS011;6424;48.520;11.228;2023-08-06T00:31:16;3.40;;;3.10;;
12719;SDS011;6424;48.520;11.228;2023-08-06T00:33:57;3.17;;;2.87;;
12719;SDS011;6424;48.520;11.228;2023-08-06T00:36:37;3.87;;;3.43;;
12719;SDS011;6424;48.520;11.228;2023-08-06T00:39:19;3.93;;;3.60;;
12719;SDS011;6424;48.520;11.228;2023-08-06T00:41:59;4.27;;;3.87;;
12719;SDS011;6424;48.520;11.228;2023-08-06T00:44:40;4.60;;;3.70;;
12719;SDS011;6424;48.520;11.228;2023-08-06T00:47:21;5.00;;;4.50;;
12719;SDS011;6424;48.520;11.228;2023-08-06T00:50:02;4.87;;;4.47;;
12719;SDS011;6424;48.520;11.228;2023-08-06T00:52:43;5.03;;;4.23;;
12719;SDS011;6424;48.520;11.228;2023-08-06T00:55:23;6.20;;;5.30;;
12719;SDS011;6424;48.520;11.228;2023-08-06T00:58:05;5.93;;;4.90;;
12719;SDS011;6424;48.520;11.228;2023-08-06T01:00:46;5.80;;;5.20;;
12719;SDS011;6424;48.520;11.228;2023-08-06T01:03:27;6.43;;;5.23;;
12719;SDS011;6424;48.520;11.228;2023-08-06T01:05:53;5.47;;;4.67;;
12719;SDS011;6424;48.520;11.228;2023-08-06T01:14:14;5.80;;;5.10;;
12719;SDS011;6424;48.520;11.228;2023-08-06T01:17:00;5.63;;;5.13;;
12719;SDS011;6424;48.520;11.228;2023-08-06T01:19:42;5.60;;;5.10;;
12719;SDS011;6424;48.520;11.228;2023-08-06T01:22:23;6.13;;;5.50;;
12719;SDS011;6424;48.520;11.228;2023-08-06T01:25:04;6.57;;;5.60;;
12719;SDS011;6424;48.520;11.228;2023-08-06T01:27:49;6.23;;;5.57;;
12719;SDS011;6424;48.520;11.228;2023-08-06T01:30:30;5.50;;;5.00;;
12719;SDS011;6424;48.520;11.228;2023-08-06T01:33:02;6.60;;;5.73;;
12719;SDS011;6424;48.520;11.228;2023-08-06T01:35:45;6.53;;;5.63;;
12719;SDS011;6424;48.520;11.228;2023-08-06T01:38:28;9.10;;;6.87;;
12719;SDS011;6424;48.520;11.228;2023-08-06T01:41:09;9.13;;;8.20;;
12719;SDS011;6424;48.520;11.228;2023-08-06T01:43:50;8.53;;;7.73;;
12719;SDS011;6424;48.520;11.228;2023-08-06T01:46:31;10.03;;;7.90;;
12719;SDS011;6424;48.520;11.228;2023-08-06T01:49:11;9.00;;;8.07;;
12719;SDS011;6424;48.520;11.228;2023-08-06T01:51:37;10.23;;;7.40;;
12719;SDS011;6424;48.520;11.228;2023-08-06T01:54:18;7.80;;;7.03;;
12719;SDS011;6424;48.520;11.228;2023-08-06T01:56:58;7.13;;;6.50;;
12719;SDS011;6424;48.520;11.228;2023-08-06T01:59:39;6.93;;;6.17;;
12719;SDS011;6424;48.520;11.228;2023-08-06T02:02:20;7.13;;;6.43;;
12719;SDS011;6424;48.520;11.228;2023-08-06T02:05:01;8.13;;;6.87;;
12719;SDS011;6424;48.520;11.228;2023-08-06T02:07:41;7.07;;;6.33;;
12719;SDS011;6424;48.520;11.228;2023-08-06T02:10:22;6.70;;;6.10;;
12719;SDS011;6424;48.520;11.228;2023-08-06T02:13:03;6.47;;;5.73;;
12719;SDS011;6424;48.520;11.228;2023-08-06T02:15:44;6.10;;;5.50;;
12719;SDS011;6424;48.520;11.228;2023-08-06T02:18:27;6.30;;;5.70;;
12719;SDS011;6424;48.520;11.228;2023-08-06T02:21:08;5.90;;;5.40;;
12719;SDS011;6424;48.520;11.228;2023-08-06T02:23:49;7.47;;;5.73;;
12719;SDS011;6424;48.520;11.228;2023-08-06T02:26:29;6.77;;;5.80;;
12719;SDS011;6424;48.520;11.228;2023-08-06T02:29:10;7.27;;;5.87;;
12719;SDS011;6424;48.520;11.228;2023-08-06T02:31:51;8.47;;;6.03;;
12719;SDS011;6424;48.520;11.228;2023-08-06T02:34:31;6.57;;;5.70;;
12719;SDS011;6424;48.520;11.228;2023-08-06T02:37:12;6.83;;;6.00;;
12719;SDS011;6424;48.520;11.228;2023-08-06T02:39:53;5.73;;;5.23;;
12719;SDS011;6424;48.520;11.228;2023-08-06T02:42:34;6.03;;;5.53;;
12719;SDS011;6424;48.520;11.228;2023-08-06T02:45:14;5.60;;;5.10;;
12719;SDS011;6424;48.520;11.228;2023-08-06T02:47:40;5.90;;;5.27;;
12719;SDS011;6424;48.520;11.228;2023-08-06T02:50:21;6.10;;;5.50;;
12719;SDS011;6424;48.520;11.228;2023-08-06T02:53:01;7.03;;;5.63;;
12719;SDS011;6424;48.520;11.228;2023-08-06T02:55:46;5.87;;;5.33;;
12719;SDS011;6424;48.520;11.228;2023-08-06T02:58:27;5.80;;;5.20;;
12719;SDS011;6424;48.520;11.228;2023-08-06T03:01:08;6.37;;;4.90;;
12719;SDS011;6424;48.520;11.228;2023-08-06T03:03:49;5.30;;;4.80;;
12719;SDS011;6424;48.520;11.228;2023-08-06T03:06:30;5.70;;;5.10;;
12719;SDS011;6424;48.520;11.228;2023-08-06T03:09:10;6.73;;;5.43;;
12719;SDS011;6424;48.520;11.228;2023-08-06T03:11:51;5.27;;;4.77;;
12719;SDS011;6424;48.520;11.228;2023-08-06T03:14:32;5.30;;;4.83;;
12719;SDS011;6424;48.520;11.228;2023-08-06T03:17:12;5.80;;;5.20;;
12719;SDS011;6424;48.520;11.228;2023-08-06T03:19:53;6.07;;;5.50;;
12719;SDS011;6424;48.520;11.228;2023-08-06T03:22:34;6.03;;;5.40;;
12719;SDS011;6424;48.520;11.228;2023-08-06T03:25:15;4.87;;;4.47;;
12719;SDS011;6424;48.520;11.228;2023-08-06T03:27:55;5.63;;;5.07;;
12719;SDS011;6424;48.520;11.228;2023-08-06T03:30:36;6.57;;;5.07;;
12719;SDS011;6424;48.520;11.228;2023-08-06T03:33:17;4.87;;;4.37;;
12719;SDS011;6424;48.520;11.228;2023-08-06T03:35:58;5.60;;;5.10;;
12719;SDS011;6424;48.520;11.228;2023-08-06T03:38:39;5.87;;;5.07;;
12719;SDS011;6424;48.520;11.228;2023-08-06T03:41:19;4.80;;;4.40;;
12719;SDS011;6424;48.520;11.228;2023-08-06T03:44:00;5.30;;;4.80;;
12719;SDS011;6424;48.520;11.228;2023-08-06T03:46:43;5.47;;;4.60;;
12719;SDS011;6424;48.520;11.228;2023-08-06T03:49:24;5.17;;;4.60;;
12719;SDS011;6424;48.520;11.228;2023-08-06T03:52:05;5.30;;;4.80;;
12719;SDS011;6424;48.520;11.228;2023-08-06T03:54:46;4.47;;;4.07;;
12719;SDS011;6424;48.520;11.228;2023-08-06T03:57:12;5.80;;;4.70;;
12719;SDS011;6424;48.520;11.228;2023-08-06T03:59:38;5.20;;;4.70;;
12719;SDS011;6424;48.520;11.228;2023-08-06T04:02:03;6.50;;;4.67;;
12719;SDS011;6424;48.520;11.228;2023-08-06T04:04:44;5.40;;;4.93;;
12719;SDS011;6424;48.520;11.228;2023-08-06T04:07:10;5.73;;;4.57;;
12719;SDS011;6424;48.520;11.228;2023-08-06T04:09:54;5.30;;;4.77;;
12719;SDS011;6424;48.520;11.228;2023-08-06T04:12:39;5.10;;;4.67;;
12719;SDS011;6424;48.520;11.228;2023-08-06T04:15:20;5.30;;;4.83;;
12719;SDS011;6424;48.520;11.228;2023-08-06T04:18:01;7.33;;;5.37;;
12719;SDS011;6424;48.520;11.228;2023-08-06T04:20:45;5.70;;;5.20;;
12719;SDS011;6424;48.520;11.228;2023-08-06T04:23:26;4.90;;;4.50;;
12719;SDS011;6424;48.520;11.228;2023-08-06T04:26:07;5.20;;;4.67;;
12719;SDS011;6424;48.520;11.228;2023-08-06T04:28:48;4.73;;;4.33;;
12719;SDS011;6424;48.520;11.228;2023-08-06T04:31:29;4.50;;;4.10;;
12719;SDS011;6424;48.520;11.228;2023-08-06T04:34:09;5.47;;;4.63;;
12719;SDS011;6424;48.520;11.228;2023-08-06T04:36:50;4.83;;;4.43;;
12719;SDS011;6424;48.520;11.228;2023-08-06T04:39:31;5.37;;;4.23;;
12719;SDS011;6424;48.520;11.228;2023-08-06T04:41:57;4.23;;;3.83;;
12719;SDS011;6424;48.520;11.228;2023-08-06T04:44:38;4.40;;;4.00;;
12719;SDS011;6424;48.520;11.228;2023-08-06T04:47:18;4.80;;;4.30;;
12719;SDS011;6424;48.520;11.228;2023-08-06T04:49:59;4.97;;;4.33;;
12719;SDS011;6424;48.520;11.228;2023-08-06T04:52:40;4.23;;;3.83;;
12719;SDS011;6424;48.520;11.228;2023-08-06T04:55:21;3.93;;;3.63;;
12719;SDS011;6424;48.520;11.228;2023-08-06T04:57:46;5.77;;;3.37;;
12719;SDS011;6424;48.520;11.228;2023-08-06T05:00:27;3.40;;;3.10;;
12719;SDS011;6424;48.520;11.228;2023-08-06T05:03:08;4.67;;;3.20;;
12719;SDS011;6424;48.520;11.228;2023-08-06T05:05:34;3.60;;;3.20;;
12719;SDS011;6424;48.520;11.228;2023-08-06T05:08:14;4.10;;;3.30;;
12719;SDS011;6424;48.520;11.228;2023-08-06T05:10:56;7.10;;;3.10;;
12719;SDS011;6424;48.520;11.228;2023-08-06T05:13:37;4.90;;;2.90;;
12719;SDS011;6424;48.520;11.228;2023-08-06T05:16:18;3.63;;;3.00;;
12719;SDS011;6424;48.520;11.228;2023-08-06T05:18:58;4.17;;;3.10;;
12719;SDS011;6424;48.520;11.228;2023-08-06T05:21:39;3.43;;;2.90;;
12719;SDS011;6424;48.520;11.228;2023-08-06T05:24:20;3.40;;;3.10;;
12719;SDS011;6424;48.520;11.228;2023-08-06T05:27:01;3.00;;;2.70;;
12719;SDS011;6424;48.520;11.228;2023-08-06T05:29:26;2.73;;;2.40;;
12719;SDS011;6424;48.520;11.228;2023-08-06T05:32:07;2.47;;;2.23;;
12719;SDS011;6424;48.520;11.228;2023-08-06T05:34:49;3.00;;;2.40;;
12719;SDS011;6424;48.520;11.228;2023-08-06T05:37:29;3.00;;;2.70;;
12719;SDS011;6424;48.520;11.228;2023-08-06T05:40:10;2.47;;;2.27;;
12719;SDS011;6424;48.520;11.228;2023-08-06T05:42:53;3.17;;;2.17;;
12719;SDS011;6424;48.520;11.228;2023-08-06T05:45:34;3.27;;;2.03;;
12719;SDS011;6424;48.520;11.228;2023-08-06T05:48:15;3.53;;;2.20;;
12719;SDS011;6424;48.520;11.228;2023-08-06T05:50:56;1.80;;;1.70;;
12719;SDS011;6424;48.520;11.228;2023-08-06T05:53:37;2.57;;;1.80;;
12719;SDS011;6424;48.520;11.228;2023-08-06T05:56:18;3.63;;;2.03;;
12719;SDS011;6424;48.520;11.228;2023-08-06T05:58:59;2.00;;;1.80;;
12719;SDS011;6424;48.520;11.228;2023-08-06T06:01:40;2.67;;;2.10;;
12719;SDS011;6424;48.520;11.228;2023-08-06T06:04:06;2.43;;;1.60;;
12719;SDS011;6424;48.520;11.228;2023-08-06T06:06:46;2.27;;;2.07;;
12719;SDS011;6424;48.520;11.228;2023-08-06T06:09:27;3.03;;;2.30;;
12719;SDS011;6424;48.520;11.228;2023-08-06T06:12:08;2.80;;;2.00;;
12719;SDS011;6424;48.520;11.228;2023-08-06T06:14:48;2.67;;;2.03;;
12719;SDS011;6424;48.520;11.228;2023-08-06T06:17:29;4.47;;;2.40;;
12719;SDS011;6424;48.520;11.228;2023-08-06T06:20:10;3.70;;;2.27;;
12719;SDS011;6424;48.520;11.228;2023-08-06T06:22:51;3.57;;;2.10;;
12719;SDS011;6424;48.520;11.228;2023-08-06T06:25:32;3.83;;;2.37;;
12719;SDS011;6424;48.520;11.228;2023-08-06T06:28:12;4.23;;;2.20;;
12719;SDS011;6424;48.520;11.228;2023-08-06T06:30:53;2.47;;;2.27;;
12719;SDS011;6424;48.520;11.228;2023-08-06T06:33:39;3.80;;;2.03;;
12719;SDS011;6424;48.520;11.228;2023-08-06T06:36:20;2.80;;;2.00;;
12719;SDS011;6424;48.520;11.228;2023-08-06T06:39:01;3.10;;;1.90;;
12719;SDS011;6424;48.520;11.228;2023-08-06T06:41:42;3.03;;;2.10;;
12719;SDS011;6424;48.520;11.228;2023-08-06T06:44:24;3.33;;;2.20;;
12719;SDS011;6424;48.520;11.228;2023-08-06T06:47:05;3.30;;;2.10;;
12719;SDS011;6424;48.520;11.228;2023-08-06T06:49:45;3.20;;;2.00;;
12719;SDS011;6424;48.520;11.228;2023-08-06T06:52:26;2.40;;;2.20;;
12719;SDS011;6424;48.520;11.228;2023-08-06T06:55:07;2.30;;;2.00;;
12719;SDS011;6424;48.520;11.228;2023-08-06T06:57:48;3.30;;;1.63;;
12719;SDS011;6424;48.520;11.228;2023-08-06T07:00:28;2.23;;;1.83;;
12719;SDS011;6424;48.520;11.228;2023-08-06T07:03:09;3.00;;;1.60;;
12719;SDS011;6424;48.520;11.228;2023-08-06T07:05:50;2.10;;;1.90;;
12719;SDS011;6424;48.520;11.228;2023-08-06T07:08:31;2.93;;;1.80;;
12719;SDS011;6424;48.520;11.228;2023-08-06T07:11:12;1.97;;;1.60;;
12719;SDS011;6424;48.520;11.228;2023-08-06T07:13:37;2.50;;;1.30;;
12719;SDS011;6424;48.520;11.228;2023-08-06T07:16:18;2.30;;;1.60;;
12719;SDS011;6424;48.520;11.228;2023-08-06T07:18:59;1.70;;;1.20;;
12719;SDS011;6424;48.520;11.228;2023-08-06T07:21:40;2.27;;;1.40;;
12719;SDS011;6424;48.520;11.228;2023-08-06T07:24:05;1.47;;;1.33;;
12719;SDS011;6424;48.520;11.228;2023-08-06T07:26:46;1.50;;;1.30;;
12719;SDS011;6424;48.520;11.228;2023-08-06T07:29:27;1.70;;;1.20;;
12719;SDS011;6424;48.520;11.228;2023-08-06T07:32:08;2.00;;;1.40;;
12719;SDS011;6424;48.520;11.228;2023-08-06T07:34:48;1.30;;;1.10;;
12719;SDS011;6424;48.520;11.228;2023-08-06T07:37:29;1.33;;;1.10;;
12719;SDS011;6424;48.520;11.228;2023-08-06T07:40:10;1.50;;;1.20;;
12719;SDS011;6424;48.520;11.228;2023-08-06T07:42:51;1.40;;;1.20;;
12719;SDS011;6424;48.520;11.228;2023-08-06T07:45:32;2.07;;;1.40;;
12719;SDS011;6424;48.520;11.228;2023-08-06T07:48:14;1.73;;;1.00;;
12719;SDS011;6424;48.520;11.228;2023-08-06T07:50:55;2.90;;;1.20;;
12719;SDS011;6424;48.520;11.228;2023-08-06T07:53:37;1.70;;;1.10;;
12719;SDS011;6424;48.520;11.228;2023-08-06T07:56:17;2.07;;;1.23;;
12719;SDS011;6424;48.520;11.228;2023-08-06T07:58:58;2.53;;;1.20;;
12719;SDS011;6424;48.520;11.228;2023-08-06T08:01:39;1.33;;;1.10;;
12719;SDS011;6424;48.520;11.228;2023-08-06T08:04:20;1.57;;;1.30;;
12719;SDS011;6424;48.520;11.228;2023-08-06T08:07:01;1.13;;;1.03;;
12719;SDS011;6424;48.520;11.228;2023-08-06T08:09:42;1.10;;;0.93;;
12719;SDS011;6424;48.520;11.228;2023-08-06T08:12:23;1.70;;;1.10;;
12719;SDS011;6424;48.520;11.228;2023-08-06T08:15:04;1.90;;;1.20;;
12719;SDS011;6424;48.520;11.228;2023-08-06T08:17:45;1.53;;;1.10;;
12719;SDS011;6424;48.520;11.228;2023-08-06T08:20:27;1.40;;;0.80;;
12719;SDS011;6424;48.520;11.228;2023-08-06T08:23:11;2.50;;;0.80;;
12719;SDS011;6424;48.520;11.228;2023-08-06T08:25:52;1.90;;;0.97;;
12719;SDS011;6424;48.520;11.228;2023-08-06T08:28:33;1.70;;;1.27;;
12719;SDS011;6424;48.520;11.228;2023-08-06T08:31:14;0.90;;;0.80;;
12719;SDS011;6424;48.520;11.228;2023-08-06T08:33:55;1.23;;;0.97;;
12719;SDS011;6424;48.520;11.228;2023-08-06T08:36:36;1.00;;;0.90;;
12719;SDS011;6424;48.520;11.228;2023-08-06T08:39:17;1.43;;;0.70;;
12719;SDS011;6424;48.520;11.228;2023-08-06T08:41:58;1.77;;;0.93;;
12719;SDS011;6424;48.520;11.228;2023-08-06T08:44:39;1.07;;;0.70;;
12719;SDS011;6424;48.520;11.228;2023-08-06T08:47:06;1.13;;;0.90;;
12719;SDS011;6424;48.520;11.228;2023-08-06T08:49:49;1.17;;;0.90;;
12719;SDS011;6424;48.520;11.228;2023-08-06T08:52:38;1.73;;;0.80;;
12719;SDS011;6424;48.520;11.228;2023-08-06T08:55:20;2.00;;;0.70;;
12719;SDS011;6424;48.520;11.228;2023-08-06T08:58:02;1.57;;;0.90;;
12719;SDS011;6424;48.520;11.228;2023-08-06T09:00:45;1.03;;;0.70;;
12719;SDS011;6424;48.520;11.228;2023-08-06T09:03:28;1.07;;;0.90;;
12719;SDS011;6424;48.520;11.228;2023-08-06T09:05:54;1.53;;;0.83;;
12719;SDS011;6424;48.520;11.228;2023-08-06T09:08:39;1.27;;;0.80;;
12719;SDS011;6424;48.520;11.228;2023-08-06T09:11:12;0.90;;;0.80;;
12719;SDS011;6424;48.520;11.228;2023-08-06T09:13:53;2.00;;;1.00;;
12719;SDS011;6424;48.520;11.228;2023-08-06T09:16:35;1.63;;;0.70;;
12719;SDS011;6424;48.520;11.228;2023-08-06T09:19:11;1.37;;;0.83;;
12719;SDS011;6424;48.520;11.228;2023-08-06T09:21:52;0.97;;;0.80;;
12719;SDS011;6424;48.520;11.228;2023-08-06T09:24:35;0.63;;;0.60;;
12719;SDS011;6424;48.520;11.228;2023-08-06T09:27:19;2.67;;;0.70;;
12719;SDS011;6424;48.520;11.228;2023-08-06T09:30:03;0.60;;;0.60;;
12719;SDS011;6424;48.520;11.228;2023-08-06T09:32:48;3.03;;;0.87;;
12719;SDS011;6424;48.520;11.228;2023-08-06T09:35:31;1.20;;;0.70;;
12719;SDS011;6424;48.520;11.228;2023-08-06T09:38:12;3.30;;;0.60;;
12719;SDS011;6424;48.520;11.228;2023-08-06T09:40:53;0.93;;;0.60;;
12719;SDS011;6424;48.520;11.228;2023-08-06T09:43:40;1.10;;;0.63;;
12719;SDS011;6424;48.520;11.228;2023-08-06T09:46:24;1.27;;;0.63;;
12719;SDS011;6424;48.520;11.228;2023-08-06T09:49:05;2.20;;;0.60;;
12719;SDS011;6424;48.520;11.228;2023-08-06T09:51:48;1.00;;;0.70;;
12719;SDS011;6424;48.520;11.228;2023-08-06T09:54:32;0.57;;;0.50;;
12719;SDS011;6424;48.520;11.228;2023-08-06T09:57:15;0.67;;;0.50;;
12719;SDS011;6424;48.520;11.228;2023-08-06T09:59:56;1.90;;;0.60;;
12719;SDS011;6424;48.520;11.228;2023-08-06T10:02:22;1.30;;;0.57;;
12719;SDS011;6424;48.520;11.228;2023-08-06T10:05:05;0.70;;;0.67;;
12719;SDS011;6424;48.520;11.228;2023-08-06T10:07:48;1.23;;;0.50;;
12719;SDS011;6424;48.520;11.228;2023-08-06T10:10:30;1.23;;;0.60;;
12719;SDS011;6424;48.520;11.228;2023-08-06T10:13:12;1.00;;;0.60;;
12719;SDS011;6424;48.520;11.228;2023-08-06T10:15:53;1.97;;;0.43;;
12719;SDS011;6424;48.520;11.228;2023-08-06T10:18:19;0.77;;;0.50;;
12719;SDS011;6424;48.520;11.228;2023-08-06T10:20:47;1.83;;;0.70;;
12719;SDS011;6424;48.520;11.228;2023-08-06T10:23:35;0.90;;;0.57;;
12719;SDS011;6424;48.520;11.228;2023-08-06T10:26:18;1.27;;;0.60;;
12719;SDS011;6424;48.520;11.228;2023-08-06T10:28:59;1.10;;;0.50;;
12719;SDS011;6424;48.520;11.228;2023-08-06T10:34:53;0.90;;;0.57;;
12719;SDS011;6424;48.520;11.228;2023-08-06T10:37:38;1.50;;;0.63;;
12719;SDS011;6424;48.520;11.228;2023-08-06T10:40:20;0.50;;;0.40;;
12719;SDS011;6424;48.520;11.228;2023-08-06T10:43:02;0.57;;;0.50;;
12719;SDS011;6424;48.520;11.228;2023-08-06T10:45:29;1.03;;;0.50;;
12719;SDS011;6424;48.520;11.228;2023-08-06T10:48:10;0.43;;;0.40;;
12719;SDS011;6424;48.520;11.228;2023-08-06T10:50:51;3.30;;;0.53;;
12719;SDS011;6424;48.520;11.228;2023-08-06T10:53:32;2.00;;;1.80;;
12719;SDS011;6424;48.520;11.228;2023-08-06T10:56:13;0.60;;;0.43;;
12719;SDS011;6424;48.520;11.228;2023-08-06T10:58:58;0.30;;;0.30;;
12719;SDS011;6424;48.520;11.228;2023-08-06T11:01:39;1.10;;;0.40;;
12719;SDS011;6424;48.520;11.228;2023-08-06T11:04:06;0.63;;;0.30;;
12719;SDS011;6424;48.520;11.228;2023-08-06T11:06:32;0.50;;;0.40;;
12719;SDS011;6424;48.520;11.228;2023-08-06T11:08:58;0.63;;;0.20;;
12719;SDS011;6424;48.520;11.228;2023-08-06T11:11:39;0.60;;;0.30;;
12719;SDS011;6424;48.520;11.228;2023-08-06T11:14:20;0.33;;;0.20;;
12719;SDS011;6424;48.520;11.228;2023-08-06T11:17:01;1.07;;;0.33;;
12719;SDS011;6424;48.520;11.228;2023-08-06T11:19:27;0.73;;;0.30;;
12719;SDS011;6424;48.520;11.228;2023-08-06T11:21:54;0.50;;;0.20;;
12719;SDS011;6424;48.520;11.228;2023-08-06T11:24:20;0.40;;;0.20;;
12719;SDS011;6424;48.520;11.228;2023-08-06T11:27:01;0.57;;;0.20;;
12719;SDS011;6424;48.520;11.228;2023-08-06T11:29:42;0.60;;;0.40;;
12719;SDS011;6424;48.520;11.228;2023-08-06T11:32:23;0.30;;;0.30;;
12719;SDS011;6424;48.520;11.228;2023-08-06T11:34:49;0.50;;;0.30;;
12719;SDS011;6424;48.520;11.228;2023-08-06T11:37:30;1.20;;;1.10;;
12719;SDS011;6424;48.520;11.228;2023-08-06T11:40:12;4.10;;;1.37;;
12719;SDS011;6424;48.520;11.228;2023-08-06T11:42:55;0.50;;;0.30;;
12719;SDS011;6424;48.520;11.228;2023-08-06T11:45:36;0.50;;;0.40;;
12719;SDS011;6424;48.520;11.228;2023-08-06T11:48:17;0.90;;;0.40;;
12719;SDS011;6424;48.520;11.228;2023-08-06T11:50:58;0.47;;;0.20;;
12719;SDS011;6424;48.520;11.228;2023-08-06T11:53:39;1.03;;;0.40;;
12719;SDS011;6424;48.520;11.228;2023-08-06T11:56:19;0.47;;;0.20;;
12719;SDS011;6424;48.520;11.228;2023-08-06T11:59:00;0.30;;;0.10;;
12719;SDS011;6424;48.520;11.228;2023-08-06T12:01:42;0.33;;;0.13;;
12719;SDS011;6424;48.520;11.228;2023-08-06T12:04:22;1.03;;;0.40;;
12719;SDS011;6424;48.520;11.228;2023-08-06T12:07:06;1.50;;;0.30;;
12719;SDS011;6424;48.520;11.228;2023-08-06T12:09:49;1.37;;;0.20;;
12719;SDS011;6424;48.520;11.228;2023-08-06T12:12:31;0.90;;;0.30;;
12719;SDS011;6424;48.520;11.228;2023-08-06T12:15:11;0.30;;;0.20;;
12719;SDS011;6424;48.520;11.228;2023-08-06T12:17:52;0.90;;;0.17;;
12719;SDS011;6424;48.520;11.228;2023-08-06T12:20:33;0.60;;;0.30;;
12719;SDS011;6424;48.520;11.228;2023-08-06T12:23:14;0.30;;;0.20;;
12719;SDS011;6424;48.520;11.228;2023-08-06T12:25:55;0.50;;;0.10;;
12719;SDS011;6424;48.520;11.228;2023-08-06T12:28:36;0.30;;;0.10;;
12719;SDS011;6424;48.520;11.228;2023-08-06T12:31:17;1.13;;;0.10;;
12719;SDS011;6424;48.520;11.228;2023-08-06T12:33:57;0.37;;;0.13;;
12719;SDS011;6424;48.520;11.228;2023-08-06T12:36:38;0.70;;;0.20;;
12719;SDS011;6424;48.520;11.228;2023-08-06T12:39:19;0.40;;;0.10;;
12719;SDS011;6424;48.520;11.228;2023-08-06T12:42:00;0.30;;;0.10;;
12719;SDS011;6424;48.520;11.228;2023-08-06T12:44:42;0.30;;;0.20;;
12719;SDS011;6424;48.520;11.228;2023-08-06T12:47:23;1.20;;;0.20;;
12719;SDS011;6424;48.520;11.228;2023-08-06T12:49:49;0.30;;;0.10;;
12719;SDS011;6424;48.520;11.228;2023-08-06T12:52:30;0.40;;;0.10;;
12719;SDS011;6424;48.520;11.228;2023-08-06T12:55:10;0.30;;;0.10;;
12719;SDS011;6424;48.520;11.228;2023-08-06T12:57:51;0.93;;;0.20;;
12719;SDS011;6424;48.520;11.228;2023-08-06T13:00:32;0.50;;;0.10;;
12719;SDS011;6424;48.520;11.228;2023-08-06T13:03:14;1.70;;;0.20;;
12719;SDS011;6424;48.520;11.228;2023-08-06T13:05:54;0.40;;;0.20;;
12719;SDS011;6424;48.520;11.228;2023-08-06T13:08:36;0.70;;;0.20;;
12719;SDS011;6424;48.520;11.228;2023-08-06T13:11:17;0.83;;;0.20;;
12719;SDS011;6424;48.520;11.228;2023-08-06T13:14:03;0.40;;;0.20;;
12719;SDS011;6424;48.520;11.228;2023-08-06T13:16:45;0.57;;;0.30;;
12719;SDS011;6424;48.520;11.228;2023-08-06T13:19:27;0.83;;;0.20;;
12719;SDS011;6424;48.520;11.228;2023-08-06T13:22:08;1.63;;;0.20;;
12719;SDS011;6424;48.520;11.228;2023-08-06T13:24:50;0.30;;;0.10;;
12719;SDS011;6424;48.520;11.228;2023-08-06T13:27:30;0.60;;;0.30;;
12719;SDS011;6424;48.520;11.228;2023-08-06T13:29:56;3.53;;;2.67;;
12719;SDS011;6424;48.520;11.228;2023-08-06T13:32:37;2.70;;;1.67;;
12719;SDS011;6424;48.520;11.228;2023-08-06T13:35:18;8.53;;;5.60;;
12719;SDS011;6424;48.520;11.228;2023-08-06T13:37:58;6.30;;;3.93;;
12719;SDS011;6424;48.520;11.228;2023-08-06T13:40:39;0.57;;;0.40;;
12719;SDS011;6424;48.520;11.228;2023-08-06T13:43:20;0.60;;;0.30;;
12719;SDS011;6424;48.520;11.228;2023-08-06T13:46:02;0.57;;;0.37;;
12719;SDS011;6424;48.520;11.228;2023-08-06T13:48:43;0.50;;;0.30;;
12719;SDS011;6424;48.520;11.228;2023-08-06T13:51:24;0.67;;;0.30;;
12719;SDS011;6424;48.520;11.228;2023-08-06T13:54:05;0.30;;;0.20;;
12719;SDS011;6424;48.520;11.228;2023-08-06T13:56:32;0.53;;;0.37;;
12719;SDS011;6424;48.520;11.228;2023-08-06T13:59:13;0.30;;;0.20;;
12719;SDS011;6424;48.520;11.228;2023-08-06T14:01:54;0.30;;;0.30;;
12719;SDS011;6424;48.520;11.228;2023-08-06T14:04:36;0.93;;;0.30;;
12719;SDS011;6424;48.520;11.228;2023-08-06T14:07:17;0.30;;;0.17;;
12719;SDS011;6424;48.520;11.228;2023-08-06T14:09:58;0.30;;;0.10;;
12719;SDS011;6424;48.520;11.228;2023-08-06T14:12:38;0.40;;;0.27;;
12719;SDS011;6424;48.520;11.228;2023-08-06T14:15:19;0.50;;;0.40;;
12719;SDS011;6424;48.520;11.228;2023-08-06T14:18:00;0.60;;;0.40;;
12719;SDS011;6424;48.520;11.228;2023-08-06T14:20:41;0.40;;;0.20;;
12719;SDS011;6424;48.520;11.228;2023-08-06T14:23:22;0.73;;;0.20;;
12719;SDS011;6424;48.520;11.228;2023-08-06T14:26:03;0.40;;;0.20;;
12719;SDS011;6424;48.520;11.228;2023-08-06T14:28:44;1.50;;;0.30;;
12719;SDS011;6424;48.520;11.228;2023-08-06T14:31:11;0.53;;;0.30;;
12719;SDS011;6424;48.520;11.228;2023-08-06T14:33:51;0.50;;;0.50;;
12719;SDS011;6424;48.520;11.228;2023-08-06T14:36:32;0.73;;;0.40;;
12719;SDS011;6424;48.520;11.228;2023-08-06T14:39:13;0.50;;;0.40;;
12719;SDS011;6424;48.520;11.228;2023-08-06T14:41:54;0.43;;;0.40;;
12719;SDS011;6424;48.520;11.228;2023-08-06T14:44:35;0.47;;;0.40;;
12719;SDS011;6424;48.520;11.228;2023-08-06T14:47:15;0.67;;;0.40;;
12719;SDS011;6424;48.520;11.228;2023-08-06T14:49:56;0.40;;;0.40;;
12719;SDS011;6424;48.520;11.228;2023-08-06T14:52:37;1.07;;;0.50;;
12719;SDS011;6424;48.520;11.228;2023-08-06T14:55:27;0.40;;;0.40;;
12719;SDS011;6424;48.520;11.228;2023-08-06T14:57:53;0.60;;;0.50;;
12719;SDS011;6424;48.520;11.228;2023-08-06T15:00:34;5.53;;;3.80;;
12719;SDS011;6424;48.520;11.228;2023-08-06T15:02:59;2.83;;;1.97;;
12719;SDS011;6424;48.520;11.228;2023-08-06T15:05:43;7.83;;;6.07;;
12719;SDS011;6424;48.520;11.228;2023-08-06T15:08:25;6.70;;;5.10;;
12719;SDS011;6424;48.520;11.228;2023-08-06T15:11:05;0.70;;;0.70;;
12719;SDS011;6424;48.520;11.228;2023-08-06T15:13:31;0.50;;;0.50;;
12719;SDS011;6424;48.520;11.228;2023-08-06T15:16:12;0.70;;;0.50;;
12719;SDS011;6424;48.520;11.228;2023-08-06T15:18:53;0.40;;;0.40;;
12719;SDS011;6424;48.520;11.228;2023-08-06T15:21:33;0.97;;;0.80;;
12719;SDS011;6424;48.520;11.228;2023-08-06T15:24:14;1.00;;;0.80;;
12719;SDS011;6424;48.520;11.228;2023-08-06T15:26:55;0.60;;;0.60;;
12719;SDS011;6424;48.520;11.228;2023-08-06T15:29:35;1.07;;;0.73;;
12719;SDS011;6424;48.520;11.228;2023-08-06T15:32:16;1.60;;;0.70;;
12719;SDS011;6424;48.520;11.228;2023-08-06T15:34:57;1.37;;;0.67;;
12719;SDS011;6424;48.520;11.228;2023-08-06T15:37:38;1.40;;;0.70;;
12719;SDS011;6424;48.520;11.228;2023-08-06T15:40:19;1.13;;;0.80;;
12719;SDS011;6424;48.520;11.228;2023-08-06T15:43:00;0.80;;;0.57;;
12719;SDS011;6424;48.520;11.228;2023-08-06T15:45:41;1.27;;;0.83;;
12719;SDS011;6424;48.520;11.228;2023-08-06T15:48:21;0.60;;;0.60;;
12719;SDS011;6424;48.520;11.228;2023-08-06T15:51:02;1.10;;;0.60;;
12719;SDS011;6424;48.520;11.228;2023-08-06T15:53:43;1.20;;;0.70;;
12719;SDS011;6424;48.520;11.228;2023-08-06T15:56:24;3.93;;;0.70;;
12719;SDS011;6424;48.520;11.228;2023-08-06T15:59:24;0.60;;;0.60;;
12719;SDS011;6424;48.520;11.228;2023-08-06T16:02:05;0.80;;;0.80;;
12719;SDS011;6424;48.520;11.228;2023-08-06T16:04:47;2.00;;;0.80;;
12719;SDS011;6424;48.520;11.228;2023-08-06T16:07:28;0.77;;;0.70;;
12719;SDS011;6424;48.520;11.228;2023-08-06T16:10:08;1.27;;;0.70;;
12719;SDS011;6424;48.520;11.228;2023-08-06T16:12:49;1.00;;;0.70;;